Time;durP1;ratioP1;P1;durP2;ratioP2;P2;SDS_P1;SDS_P2;PMS_P1;PMS_P2;Temp;Humidity;BMP_temperature;BMP_pressure;BME280_temperature;BME280_humidity;BME280_pressure;Samples;Min_cycle;Max_cycle;Signal;HPM_P1;HPM_P2
2021/06/28 00:00:56;;;;;;;3.90;3.33;;;18.60;99.90;;;;;;5139008;27;20423;-39
2021/06/28 00:03:22;;;;;;;4.50;4.10;;;18.60;99.90;;;;;;5139067;27;20404;-37
2021/06/28 00:05:49;;;;;;;3.60;3.30;;;18.60;99.90;;;;;;5139431;27;20190;-37
2021/06/28 00:08:15;;;;;;;4.13;3.77;;;18.60;99.90;;;;;;5139111;27;20174;-37
2021/06/28 00:10:40;;;;;;;3.80;3.50;;;18.60;99.90;;;;;;5139047;27;20903;-37
2021/06/28 00:13:06;;;;;;;3.40;3.10;;;18.60;99.90;;;;;;5139049;27;20175;-37
2021/06/28 00:15:38;;;;;;;4.43;4.00;;;18.60;99.90;;;;;;5138583;27;20316;-37
2021/06/28 00:18:07;;;;;;;4.20;3.80;;;18.50;99.90;;;;;;5138760;27;20294;-36
2021/06/28 00:20:33;;;;;;;5.10;3.80;;;18.50;99.90;;;;;;5137832;27;20425;-37
2021/06/28 00:23:00;;;;;;;4.20;3.83;;;18.50;99.90;;;;;;5120428;28;20436;-37
2021/06/28 00:25:27;;;;;;;4.70;4.30;;;18.50;99.90;;;;;;5138205;28;20507;-36
2021/06/28 00:27:52;;;;;;;4.63;4.17;;;18.40;99.90;;;;;;5137991;28;20693;-37
2021/06/28 00:30:20;;;;;;;5.30;4.53;;;18.40;99.90;;;;;;5138420;28;20573;-36
2021/06/28 00:32:46;;;;;;;5.50;5.00;;;18.40;99.90;;;;;;5138298;28;20409;-37
2021/06/28 00:35:13;;;;;;;4.83;4.50;;;18.30;99.90;;;;;;5138451;28;20426;-37
2021/06/28 00:37:40;;;;;;;4.83;4.43;;;18.40;99.90;;;;;;5141865;27;20750;-37
2021/06/28 00:40:09;;;;;;;4.73;4.33;;;18.30;99.90;;;;;;5142675;27;20444;-36
2021/06/28 00:42:35;;;;;;;5.00;4.53;;;18.30;99.90;;;;;;5124635;27;20485;-36
2021/06/28 00:45:23;;;;;;;6.03;4.23;;;18.30;99.90;;;;;;5142826;27;20813;-36
2021/06/28 00:47:51;;;;;;;4.70;4.30;;;18.30;99.90;;;;;;5142962;27;20427;-38
2021/06/28 00:50:17;;;;;;;8.80;4.43;;;18.30;99.90;;;;;;5142319;27;20708;-36
2021/06/28 00:52:45;;;;;;;5.00;4.60;;;18.30;99.90;;;;;;5142513;27;20420;-37
2021/06/28 00:55:11;;;;;;;3.87;3.57;;;18.30;99.90;;;;;;5121997;28;20437;-37
2021/06/28 00:57:37;;;;;;;4.10;3.80;;;18.40;99.90;;;;;;5121488;28;20699;-38
2021/06/28 01:00:06;;;;;;;4.90;3.33;;;18.40;99.90;;;;;;5103726;28;20699;-36
2021/06/28 01:02:32;;;;;;;4.50;4.10;;;18.50;99.90;;;;;;5121914;28;20406;-37
2021/06/28 01:04:57;;;;;;;5.13;4.03;;;18.60;99.90;;;;;;5120842;28;20437;-37
2021/06/28 01:07:23;;;;;;;3.93;3.63;;;18.60;99.90;;;;;;5120410;28;20191;-36
2021/06/28 01:09:49;;;;;;;4.37;4.00;;;18.70;99.90;;;;;;5120348;28;20434;-37
2021/06/28 01:12:15;;;;;;;4.00;3.60;;;18.80;99.90;;;;;;5120762;28;20588;-37
2021/06/28 01:14:41;;;;;;;4.00;3.70;;;18.80;99.90;;;;;;5120386;28;20695;-43
2021/06/28 01:17:06;;;;;;;4.53;4.13;;;18.80;99.90;;;;;;5102451;28;20183;-49
2021/06/28 01:23:22;;;;;;;4.60;4.27;;;18.80;99.90;;;;;;5119808;28;20231;-45
2021/06/28 01:25:50;;;;;;;4.50;4.10;;;18.80;99.90;;;;;;5120395;28;20402;-44
2021/06/28 01:28:16;;;;;;;4.73;4.23;;;18.80;99.90;;;;;;5119966;28;20668;-45
2021/06/28 01:30:43;;;;;;;4.10;3.70;;;18.80;99.90;;;;;;5120108;28;20452;-43
2021/06/28 01:33:08;;;;;;;3.37;3.07;;;18.80;99.90;;;;;;5120051;28;20414;-45
2021/06/28 01:35:36;;;;;;;4.97;4.20;;;18.90;99.90;;;;;;5120175;28;20428;-43
2021/06/28 01:38:02;;;;;;;3.83;3.53;;;18.90;99.90;;;;;;5101804;28;20218;-44
2021/06/28 01:40:28;;;;;;;4.73;4.33;;;18.90;99.90;;;;;;5119847;28;20421;-45
2021/06/28 01:42:53;;;;;;;3.83;3.53;;;18.90;99.90;;;;;;5119588;28;20779;-44
2021/06/28 01:45:21;;;;;;;3.90;3.60;;;18.90;99.90;;;;;;5119646;28;20195;-44
2021/06/28 01:47:51;;;;;;;4.73;4.33;;;18.90;99.90;;;;;;5118969;28;20175;-44
2021/06/28 01:50:18;;;;;;;3.87;3.57;;;18.90;99.90;;;;;;5119599;28;20706;-44
2021/06/28 01:52:45;;;;;;;4.57;4.07;;;19.00;99.90;;;;;;5119642;28;20934;-46
2021/06/28 01:55:13;;;;;;;4.80;3.70;;;19.00;99.90;;;;;;5140056;27;20484;-46
2021/06/28 01:57:43;;;;;;;3.67;3.37;;;19.00;99.90;;;;;;5140323;27;20416;-45
2021/06/28 02:00:11;;;;;;;4.57;4.27;;;18.90;99.90;;;;;;5140295;27;20674;-45
2021/06/28 02:02:36;;;;;;;4.47;4.07;;;18.90;99.90;;;;;;5140043;27;20404;-44
2021/06/28 02:05:03;;;;;;;6.10;4.50;;;18.90;99.90;;;;;;5140229;27;20434;-45
2021/06/28 02:07:29;;;;;;;3.93;3.63;;;18.90;99.90;;;;;;5139763;27;20191;-44
2021/06/28 02:09:54;;;;;;;4.40;4.00;;;18.90;99.90;;;;;;5139737;27;20523;-44
2021/06/28 02:12:21;;;;;;;5.00;4.50;;;19.00;99.90;;;;;;5121393;27;20179;-45
2021/06/28 02:14:47;;;;;;;4.13;3.83;;;19.00;99.90;;;;;;5139551;27;20182;-44
2021/06/28 02:17:13;;;;;;;4.50;4.03;;;19.00;99.90;;;;;;5139721;27;20425;-45
2021/06/28 02:19:38;;;;;;;4.57;4.17;;;19.00;99.90;;;;;;5139084;27;20547;-45
2021/06/28 02:22:04;;;;;;;4.37;3.97;;;19.00;99.90;;;;;;5139546;27;20554;-45
2021/06/28 02:24:30;;;;;;;6.00;5.43;;;19.00;99.90;;;;;;5139583;27;20262;-45
2021/06/28 02:26:55;;;;;;;5.20;4.30;;;19.10;99.90;;;;;;5121715;27;20545;-45
2021/06/28 02:29:21;;;;;;;4.80;4.40;;;19.00;99.90;;;;;;5139421;27;20475;-44
2021/06/28 02:31:47;;;;;;;5.50;4.63;;;19.00;99.90;;;;;;5104104;27;20205;-44
2021/06/28 02:34:12;;;;;;;5.07;4.67;;;18.90;99.90;;;;;;5139726;27;20199;-45
2021/06/28 02:36:38;;;;;;;6.07;4.90;;;18.80;99.90;;;;;;5121491;27;20183;-44
2021/06/28 02:39:06;;;;;;;4.20;3.90;;;18.80;99.90;;;;;;5138938;27;20203;-45
2021/06/28 02:41:32;;;;;;;5.80;5.30;;;18.70;99.90;;;;;;5120952;27;20171;-44
2021/06/28 02:43:58;;;;;;;5.27;4.83;;;18.70;99.90;;;;;;5139187;27;20424;-44
2021/06/28 02:46:24;;;;;;;6.20;5.70;;;18.70;99.90;;;;;;5120744;27;20447;-45
2021/06/28 02:48:50;;;;;;;4.67;4.27;;;18.70;99.90;;;;;;5139475;27;20183;-44
2021/06/28 02:51:16;;;;;;;5.27;4.73;;;18.70;99.90;;;;;;5139426;27;20421;-45
2021/06/28 02:53:42;;;;;;;4.33;3.93;;;18.70;99.90;;;;;;5139022;27;20515;-44
2021/06/28 02:56:14;;;;;;;5.50;4.17;;;18.70;99.90;;;;;;5138988;27;20818;-45
2021/06/28 02:58:53;;;;;;;8.30;4.80;;;18.70;99.90;;;;;;5138790;27;20901;-45
2021/06/28 03:01:22;;;;;;;4.77;4.30;;;18.80;99.90;;;;;;5139154;27;20444;-44
2021/06/28 03:03:48;;;;;;;4.70;4.30;;;18.70;99.90;;;;;;5120832;27;20489;-46
2021/06/28 03:06:14;;;;;;;4.97;4.57;;;18.70;99.90;;;;;;5120549;27;20413;-44
2021/06/28 03:08:41;;;;;;;4.30;3.90;;;18.70;99.90;;;;;;5138370;27;20435;-44
2021/06/28 03:11:07;;;;;;;5.97;5.47;;;18.70;99.90;;;;;;5138461;27;20431;-44
2021/06/28 03:13:33;;;;;;;5.07;4.67;;;18.70;99.90;;;;;;5138211;27;20424;-46
2021/06/28 03:15:59;;;;;;;6.20;4.90;;;18.70;99.90;;;;;;5138896;27;20179;-46
2021/06/28 03:18:24;;;;;;;9.30;5.00;;;18.70;99.90;;;;;;5138119;27;20857;-45
2021/06/28 03:20:51;;;;;;;4.87;4.47;;;18.70;99.90;;;;;;5120385;27;20481;-44
2021/06/28 03:23:17;;;;;;;3.97;3.67;;;18.70;99.90;;;;;;5120298;27;20167;-45
2021/06/28 03:25:43;;;;;;;4.70;4.30;;;18.70;99.90;;;;;;5138536;27;20481;-46
2021/06/28 03:28:09;;;;;;;4.60;4.20;;;18.70;99.90;;;;;;5138079;27;20417;-46
2021/06/28 03:30:35;;;;;;;3.70;3.40;;;18.70;99.90;;;;;;5138426;27;20178;-46
2021/06/28 03:33:00;;;;;;;4.27;3.97;;;18.70;99.90;;;;;;5138147;27;20446;-45
2021/06/28 03:35:26;;;;;;;5.50;4.63;;;18.70;99.90;;;;;;5137799;27;20405;-44
2021/06/28 03:37:52;;;;;;;6.03;4.00;;;18.70;99.90;;;;;;5119554;27;20445;-46
2021/06/28 03:40:17;;;;;;;4.20;3.90;;;18.80;99.90;;;;;;5138134;27;20281;-44
2021/06/28 03:42:43;;;;;;;4.20;3.90;;;18.70;99.90;;;;;;5138136;27;20175;-46
2021/06/28 03:45:11;;;;;;;3.70;3.40;;;18.70;99.90;;;;;;5138083;27;20194;-44
2021/06/28 03:47:37;;;;;;;5.03;4.23;;;18.70;99.90;;;;;;5136295;27;20181;-44
2021/06/28 03:50:05;;;;;;;4.23;3.83;;;18.70;99.90;;;;;;5136605;27;20670;-45
2021/06/28 03:52:31;;;;;;;5.70;4.23;;;18.70;99.90;;;;;;5136341;27;20417;-44
2021/06/28 03:54:57;;;;;;;4.03;3.73;;;18.70;99.90;;;;;;5136363;27;20471;-46
2021/06/28 03:57:22;;;;;;;4.27;3.87;;;18.70;99.90;;;;;;5136066;27;20179;-44
2021/06/28 03:59:48;;;;;;;4.43;4.13;;;18.70;99.90;;;;;;5135460;27;20551;-44
2021/06/28 04:02:14;;;;;;;4.57;3.93;;;18.80;99.90;;;;;;5136315;27;20176;-42
2021/06/28 04:04:39;;;;;;;3.67;3.37;;;18.80;99.90;;;;;;5137500;27;20183;-43
2021/06/28 04:07:05;;;;;;;8.47;4.63;;;18.90;99.90;;;;;;5137491;27;20190;-43
2021/06/28 04:09:31;;;;;;;4.67;3.57;;;19.00;99.90;;;;;;5137548;27;20260;-42
2021/06/28 04:11:56;;;;;;;4.73;4.07;;;19.10;99.90;;;;;;5137327;27;20191;-43
2021/06/28 04:14:22;;;;;;;5.53;3.97;;;19.30;99.90;;;;;;5119486;27;20194;-43
2021/06/28 04:16:47;;;;;;;5.63;3.30;;;19.40;99.90;;;;;;5138533;27;20179;-42
2021/06/28 04:19:13;;;;;;;7.40;3.77;;;19.50;99.90;;;;;;5137690;27;20202;-42
2021/06/28 04:21:38;;;;;;;4.03;3.63;;;19.60;99.90;;;;;;5138047;27;20179;-45
2021/06/28 04:24:05;;;;;;;4.07;3.63;;;19.70;99.90;;;;;;5138165;27;20178;-44
2021/06/28 04:26:31;;;;;;;3.83;3.20;;;19.80;99.90;;;;;;5138146;28;20190;-43
2021/06/28 04:28:57;;;;;;;3.97;3.57;;;19.90;99.90;;;;;;5137840;28;20421;-42
2021/06/28 04:31:23;;;;;;;4.23;3.83;;;19.90;99.90;;;;;;5119774;28;20638;-44
2021/06/28 04:33:49;;;;;;;3.67;3.00;;;20.00;99.90;;;;;;5138157;28;20523;-42
2021/06/28 04:36:14;;;;;;;3.83;3.53;;;20.00;99.90;;;;;;5138022;28;20187;-43
2021/06/28 04:38:40;;;;;;;5.10;4.50;;;20.00;99.90;;;;;;5137408;27;20203;-42
2021/06/28 04:41:06;;;;;;;3.60;3.30;;;20.00;99.90;;;;;;5137638;28;20183;-42
2021/06/28 04:43:32;;;;;;;4.80;3.43;;;20.00;99.90;;;;;;5137395;28;20247;-43
2021/06/28 04:45:57;;;;;;;3.40;3.10;;;20.10;99.90;;;;;;5118384;28;20460;-44
2021/06/28 04:48:23;;;;;;;4.07;3.77;;;20.10;99.90;;;;;;5137647;28;20556;-42
2021/06/28 04:50:49;;;;;;;3.47;3.20;;;20.20;99.90;;;;;;5137215;28;20233;-45
2021/06/28 04:53:15;;;;;;;3.70;3.40;;;20.30;99.90;;;;;;5137053;28;20330;-42
2021/06/28 04:55:41;;;;;;;4.17;3.87;;;20.30;99.90;;;;;;5137773;28;20504;-43
2021/06/28 04:58:06;;;;;;;3.97;3.47;;;20.30;99.90;;;;;;5118549;28;20580;-44
2021/06/28 05:00:32;;;;;;;3.87;3.47;;;20.40;99.90;;;;;;5135312;28;20184;-42
2021/06/28 05:02:58;;;;;;;6.30;3.97;;;20.40;99.90;;;;;;5135722;28;20176;-43
2021/06/28 05:05:23;;;;;;;4.50;4.10;;;20.60;99.90;;;;;;5136679;28;20512;-45
2021/06/28 05:07:49;;;;;;;4.00;3.70;;;20.70;99.90;;;;;;5136311;28;20175;-43
2021/06/28 05:10:15;;;;;;;4.57;4.13;;;20.90;99.90;;;;;;5135694;28;20240;-43
2021/06/28 05:12:42;;;;;;;3.87;3.57;;;21.00;99.90;;;;;;5134593;28;20236;-44
2021/06/28 05:15:09;;;;;;;4.17;3.77;;;21.10;99.90;;;;;;5134910;28;20447;-43
2021/06/28 05:17:35;;;;;;;4.13;3.73;;;21.20;99.90;;;;;;5133905;28;20551;-44
2021/06/28 05:20:03;;;;;;;7.30;3.63;;;21.40;99.90;;;;;;5115539;28;20536;-43
2021/06/28 05:22:30;;;;;;;3.60;3.30;;;21.60;99.90;;;;;;5133488;27;20413;-43
2021/06/28 05:24:55;;;;;;;4.10;3.80;;;21.70;99.70;;;;;;5136619;27;20420;-44
2021/06/28 05:27:21;;;;;;;4.60;3.50;;;21.80;99.20;;;;;;5137733;27;20416;-44
2021/06/28 05:29:47;;;;;;;3.60;3.30;;;21.80;98.90;;;;;;5138099;27;20190;-44
2021/06/28 05:32:12;;;;;;;4.23;3.83;;;21.80;99.00;;;;;;5139928;27;20239;-44
2021/06/28 05:34:38;;;;;;;4.53;3.77;;;21.80;98.10;;;;;;5140672;27;20186;-44
2021/06/28 05:37:03;;;;;;;4.03;3.60;;;21.60;98.20;;;;;;5122309;27;20328;-43
2021/06/28 05:39:29;;;;;;;3.67;3.37;;;21.60;98.80;;;;;;5137196;27;20230;-43
2021/06/28 05:41:55;;;;;;;4.10;3.07;;;21.70;99.10;;;;;;5137295;27;20281;-43
2021/06/28 05:44:20;;;;;;;3.50;3.27;;;21.70;98.80;;;;;;5137182;27;20179;-43
2021/06/28 05:46:46;;;;;;;4.57;3.83;;;21.70;98.90;;;;;;5138400;27;20182;-43
2021/06/28 05:49:12;;;;;;;3.63;3.43;;;21.70;98.90;;;;;;5138300;27;20294;-43
2021/06/28 05:51:37;;;;;;;4.10;3.70;;;21.60;99.30;;;;;;5138010;27;20189;-42
2021/06/28 05:54:03;;;;;;;8.10;3.63;;;21.70;99.10;;;;;;5138536;27;20222;-45
2021/06/28 05:56:29;;;;;;;3.63;3.33;;;21.80;98.90;;;;;;5137133;27;20240;-42
2021/06/28 05:58:54;;;;;;;5.10;3.20;;;22.10;98.80;;;;;;5117525;27;20638;-43
2021/06/28 06:01:20;;;;;;;6.83;4.07;;;22.20;98.10;;;;;;5137246;27;20503;-43
2021/06/28 06:03:46;;;;;;;4.43;3.80;;;22.20;98.50;;;;;;5138023;27;20171;-43
2021/06/28 06:06:12;;;;;;;7.03;3.80;;;22.40;98.10;;;;;;5137789;27;20187;-43
2021/06/28 06:08:39;;;;;;;3.73;3.43;;;22.50;98.20;;;;;;5139078;27;20506;-45
2021/06/28 06:11:04;;;;;;;4.40;3.00;;;22.70;98.00;;;;;;5138527;27;20504;-45
2021/06/28 06:13:30;;;;;;;3.93;3.30;;;23.00;97.70;;;;;;5137079;27;20515;-44
2021/06/28 06:15:58;;;;;;;4.80;4.40;;;23.10;97.20;;;;;;5119370;27;20566;-44
2021/06/28 06:18:24;;;;;;;4.03;3.03;;;23.20;96.70;;;;;;5137941;27;20495;-43
2021/06/28 06:20:49;;;;;;;5.80;3.60;;;23.30;96.50;;;;;;5138300;27;20752;-44
2021/06/28 06:23:15;;;;;;;4.30;3.87;;;23.30;96.20;;;;;;5137047;27;20453;-43
2021/06/28 06:25:44;;;;;;;4.43;4.03;;;23.40;96.20;;;;;;5137209;27;20224;-43
2021/06/28 06:28:10;;;;;;;5.23;3.83;;;23.50;96.20;;;;;;5137474;27;20511;-44
2021/06/28 06:30:37;;;;;;;4.40;3.67;;;23.60;95.70;;;;;;5120699;27;20511;-43
2021/06/28 06:33:03;;;;;;;3.83;3.17;;;23.60;95.20;;;;;;5139025;27;20517;-41
2021/06/28 06:35:29;;;;;;;4.47;4.00;;;23.70;95.00;;;;;;5134980;27;20489;-45
2021/06/28 06:37:57;;;;;;;4.73;3.53;;;23.70;94.10;;;;;;5137038;27;20441;-43
2021/06/28 06:40:24;;;;;;;3.83;3.20;;;23.40;94.90;;;;;;5137414;27;20503;-41
2021/06/28 06:42:51;;;;;;;3.93;3.53;;;23.60;94.50;;;;;;5138396;27;20405;-44
2021/06/28 06:45:17;;;;;;;4.60;3.70;;;23.80;94.40;;;;;;5138197;27;20412;-41
2021/06/28 06:47:43;;;;;;;3.43;3.13;;;24.10;94.40;;;;;;5136926;27;20416;-43
2021/06/28 06:50:11;;;;;;;6.70;3.57;;;24.30;94.00;;;;;;5137233;27;20456;-43
2021/06/28 06:52:37;;;;;;;5.53;3.33;;;24.60;92.70;;;;;;5136919;27;20825;-44
2021/06/28 06:55:06;;;;;;;3.93;3.20;;;24.70;92.00;;;;;;5137396;27;20536;-43
2021/06/28 06:57:32;;;;;;;5.20;3.43;;;24.80;91.90;;;;;;5138021;27;20428;-43
2021/06/28 06:59:57;;;;;;;4.27;3.40;;;25.00;92.50;;;;;;5134976;27;20490;-44
2021/06/28 07:02:23;;;;;;;3.97;3.20;;;25.20;91.30;;;;;;5134479;27;20186;-43
2021/06/28 07:04:49;;;;;;;3.30;2.77;;;25.40;91.10;;;;;;5134916;27;20351;-43
2021/06/28 07:07:14;;;;;;;3.87;3.50;;;25.40;90.40;;;;;;5135119;27;20236;-43
2021/06/28 07:09:40;;;;;;;3.00;2.80;;;25.60;90.30;;;;;;5117379;27;20186;-43
2021/06/28 07:12:06;;;;;;;3.40;2.60;;;25.70;90.50;;;;;;5116840;27;20174;-43
2021/06/28 07:14:32;;;;;;;3.70;3.20;;;25.90;90.20;;;;;;5134964;27;20185;-44
2021/06/28 07:16:57;;;;;;;3.40;3.10;;;26.00;89.00;;;;;;5118016;27;20836;-45
2021/06/28 07:19:23;;;;;;;5.07;3.30;;;26.20;89.60;;;;;;5136667;27;20206;-43
2021/06/28 07:21:49;;;;;;;4.90;3.30;;;26.20;90.30;;;;;;5136155;27;20193;-44
2021/06/28 07:24:15;;;;;;;3.53;3.23;;;26.20;90.40;;;;;;5134022;27;20175;-43
2021/06/28 07:26:41;;;;;;;3.43;2.73;;;26.30;90.50;;;;;;5135362;27;20167;-44
2021/06/28 07:29:06;;;;;;;3.57;3.27;;;26.40;90.50;;;;;;5117616;27;20423;-44
2021/06/28 07:31:32;;;;;;;3.57;3.27;;;26.50;90.60;;;;;;5134912;27;20417;-37
2021/06/28 07:33:58;;;;;;;3.60;3.30;;;26.50;89.50;;;;;;5135563;27;20227;-37
2021/06/28 07:36:24;;;;;;;4.10;3.70;;;26.50;90.00;;;;;;5117588;27;20171;-37
2021/06/28 07:38:50;;;;;;;3.67;3.23;;;26.70;90.80;;;;;;5135003;27;20475;-37
2021/06/28 07:41:15;;;;;;;3.07;2.87;;;26.80;90.50;;;;;;5117820;27;20205;-38
2021/06/28 07:43:42;;;;;;;3.43;3.13;;;27.00;90.40;;;;;;5116542;27;20216;-37
2021/06/28 07:46:07;;;;;;;3.23;3.03;;;27.20;90.80;;;;;;5116093;27;20179;-37
2021/06/28 07:48:34;;;;;;;3.47;3.27;;;27.60;90.10;;;;;;5134845;27;20424;-37
2021/06/28 07:50:59;;;;;;;4.00;3.60;;;27.80;88.50;;;;;;5133923;27;20176;-37
2021/06/28 07:53:25;;;;;;;3.50;3.20;;;28.00;87.70;;;;;;5134595;27;20461;-37
2021/06/28 07:55:51;;;;;;;3.87;3.57;;;28.00;87.60;;;;;;5117777;27;20185;-38
2021/06/28 07:58:16;;;;;;;3.37;3.07;;;28.30;88.60;;;;;;5136927;27;20207;-37
2021/06/28 08:00:42;;;;;;;3.63;3.43;;;28.40;89.30;;;;;;5118369;27;20180;-37
2021/06/28 08:03:08;;;;;;;3.50;3.20;;;28.50;88.40;;;;;;5136436;27;20227;-37
2021/06/28 08:05:39;;;;;;;3.50;3.30;;;28.60;89.00;;;;;;5118452;27;20183;-37
2021/06/28 08:08:05;;;;;;;3.80;3.50;;;28.80;88.70;;;;;;5135821;27;20424;-38
2021/06/28 08:10:31;;;;;;;3.50;3.13;;;28.90;85.70;;;;;;5136868;27;20786;-38
2021/06/28 08:12:57;;;;;;;2.93;2.73;;;29.10;82.60;;;;;;5135384;27;20408;-39
2021/06/28 08:15:22;;;;;;;3.50;3.20;;;29.00;83.80;;;;;;5136673;27;20496;-37
2021/06/28 08:17:49;;;;;;;3.33;3.03;;;29.10;83.00;;;;;;5137193;27;20524;-37
2021/06/28 08:20:17;;;;;;;3.00;2.77;;;29.20;80.60;;;;;;5136244;27;20214;-38
2021/06/28 08:22:44;;;;;;;3.17;2.87;;;29.40;80.30;;;;;;5136628;27;20394;-38
2021/06/28 08:25:11;;;;;;;2.93;2.73;;;29.50;77.40;;;;;;5135524;27;20489;-40
2021/06/28 08:27:37;;;;;;;3.20;3.00;;;29.50;73.80;;;;;;5136637;28;20451;-37
2021/06/28 08:30:07;;;;;;;2.73;2.53;;;29.70;73.40;;;;;;5136775;28;20407;-38
2021/06/28 08:32:33;;;;;;;4.50;2.97;;;29.90;75.90;;;;;;5136740;28;20495;-38
2021/06/28 08:34:59;;;;;;;3.27;2.97;;;30.20;76.70;;;;;;5118701;28;20485;-39
2021/06/28 08:37:25;;;;;;;2.87;2.67;;;30.50;72.80;;;;;;5135765;28;20481;-38
2021/06/28 08:39:51;;;;;;;3.03;2.83;;;30.50;73.00;;;;;;5118165;28;20259;-38
2021/06/28 08:42:18;;;;;;;3.63;3.33;;;30.60;69.90;;;;;;5136252;28;20379;-39
2021/06/28 08:44:44;;;;;;;3.43;3.13;;;30.80;71.60;;;;;;5136581;28;20485;-39
2021/06/28 08:47:10;;;;;;;3.63;3.33;;;30.90;72.10;;;;;;5136167;28;20495;-38
2021/06/28 08:49:37;;;;;;;3.10;2.90;;;31.20;73.20;;;;;;5118399;28;20494;-39
2021/06/28 08:52:03;;;;;;;2.97;2.77;;;31.40;70.20;;;;;;5135155;28;20718;-39
2021/06/28 08:54:29;;;;;;;3.60;3.30;;;31.50;69.00;;;;;;5136540;28;20464;-37
2021/06/28 08:56:56;;;;;;;3.77;3.40;;;31.80;69.30;;;;;;5136611;27;20394;-39
2021/06/28 08:59:22;;;;;;;3.50;3.20;;;32.00;68.20;;;;;;5122783;27;20347;-40
2021/06/28 09:01:48;;;;;;;3.73;3.27;;;32.30;69.40;;;;;;5141064;27;20485;-39
2021/06/28 09:04:13;;;;;;;4.90;3.53;;;32.40;68.50;;;;;;5140118;27;20603;-39
2021/06/28 09:06:40;;;;;;;3.33;3.10;;;32.60;65.00;;;;;;5120342;27;20182;-38
2021/06/28 09:09:12;;;;;;;3.67;3.33;;;32.20;63.60;;;;;;5138556;27;20406;-39
2021/06/28 09:11:50;;;;;;;3.47;3.17;;;32.30;63.90;;;;;;5139089;27;20496;-38
2021/06/28 09:14:17;;;;;;;3.80;3.40;;;32.60;66.20;;;;;;5139172;27;20394;-38
2021/06/28 09:16:45;;;;;;;5.10;3.63;;;32.70;65.10;;;;;;5139731;27;20391;-39
2021/06/28 09:19:17;;;;;;;3.93;3.53;;;33.00;63.40;;;;;;5138451;27;20824;-38
2021/06/28 09:21:52;;;;;;;4.10;3.20;;;33.20;59.90;;;;;;5119187;27;20850;-38
2021/06/28 09:24:30;;;;;;;3.13;2.90;;;33.20;60.80;;;;;;5136486;27;20422;-38
2021/06/28 09:27:09;;;;;;;3.30;3.00;;;33.20;61.80;;;;;;5117513;28;20463;-39
2021/06/28 09:29:37;;;;;;;3.70;3.40;;;33.30;60.30;;;;;;5118080;28;20433;-40
2021/06/28 09:32:10;;;;;;;3.33;3.13;;;33.20;60.10;;;;;;5119079;28;20425;-38
2021/06/28 09:34:38;;;;;;;3.17;2.97;;;33.30;60.20;;;;;;5119308;28;20432;-38
2021/06/28 09:37:05;;;;;;;3.63;3.37;;;33.50;59.20;;;;;;5100872;28;20479;-38
2021/06/28 09:39:38;;;;;;;3.60;3.30;;;33.60;57.40;;;;;;5118966;28;20844;-40
2021/06/28 09:42:07;;;;;;;4.00;3.60;;;33.80;58.50;;;;;;5118215;28;20428;-39
2021/06/28 09:44:33;;;;;;;3.07;2.87;;;34.10;60.70;;;;;;5118557;28;20986;-38
2021/06/28 09:47:12;;;;;;;4.00;3.40;;;34.50;59.60;;;;;;5117695;28;20817;-38
2021/06/28 09:49:42;;;;;;;4.03;3.70;;;35.00;58.60;;;;;;5117806;28;20421;-39
2021/06/28 09:52:08;;;;;;;3.63;3.33;;;35.30;57.40;;;;;;5100138;28;20694;-40
2021/06/28 09:54:36;;;;;;;3.60;3.30;;;35.60;57.00;;;;;;5116548;28;20465;-40
2021/06/28 09:57:05;;;;;;;3.53;3.23;;;35.70;53.60;;;;;;5117506;28;20407;-40
2021/06/28 09:59:38;;;;;;;3.73;3.17;;;35.60;54.60;;;;;;5117649;28;20473;-40
2021/06/28 10:02:30;;;;;;;3.60;3.30;;;35.60;54.50;;;;;;5116693;28;20452;-40
2021/06/28 10:05:12;;;;;;;3.50;3.20;;;35.60;51.90;;;;;;5114580;28;20417;-37
2021/06/28 10:07:39;;;;;;;3.57;3.20;;;35.70;52.70;;;;;;5114762;28;20441;-38
2021/06/28 10:10:28;;;;;;;3.73;3.50;;;35.80;51.90;;;;;;5096447;28;20453;-38
2021/06/28 10:12:56;;;;;;;3.10;2.90;;;35.70;51.60;;;;;;5117059;28;20437;-39
2021/06/28 10:15:23;;;;;;;3.30;3.10;;;35.70;52.00;;;;;;5117283;28;20841;-37
2021/06/28 10:17:49;;;;;;;4.03;3.73;;;35.90;51.40;;;;;;5118526;28;20665;-39
2021/06/28 10:20:19;;;;;;;3.20;3.00;;;36.30;52.70;;;;;;5117580;28;20465;-42
2021/06/28 10:22:46;;;;;;;3.60;3.40;;;36.40;47.20;;;;;;5118786;28;20696;-38
2021/06/28 10:25:14;;;;;;;3.20;3.00;;;36.50;49.60;;;;;;5117576;28;20794;-38
2021/06/28 10:27:40;;;;;;;4.33;3.80;;;36.60;48.90;;;;;;5117611;28;20405;-41
2021/06/28 10:30:09;;;;;;;3.20;2.90;;;36.80;47.50;;;;;;5098516;28;20392;-39
2021/06/28 10:32:35;;;;;;;3.67;3.20;;;37.10;48.50;;;;;;5116537;28;20491;-38
2021/06/28 10:35:02;;;;;;;3.03;2.80;;;37.20;47.90;;;;;;5117194;28;20421;-42
2021/06/28 10:37:30;;;;;;;3.57;3.37;;;37.50;48.80;;;;;;5118423;28;20481;-40
2021/06/28 10:39:57;;;;;;;3.10;2.90;;;37.40;45.80;;;;;;5118185;28;20874;-40
2021/06/28 10:42:35;;;;;;;3.57;3.27;;;37.60;45.10;;;;;;5116458;28;20417;-39
2021/06/28 10:45:01;;;;;;;3.57;3.37;;;37.70;45.80;;;;;;5116963;28;20900;-39
2021/06/28 10:47:28;;;;;;;4.00;3.70;;;37.80;46.20;;;;;;5116164;28;20732;-39
2021/06/28 10:49:55;;;;;;;3.30;3.10;;;37.90;46.40;;;;;;5113483;28;20448;-40
2021/06/28 10:52:38;;;;;;;3.57;3.37;;;38.10;45.00;;;;;;5113724;28;20922;-39
2021/06/28 10:55:13;;;;;;;3.63;3.27;;;38.30;47.10;;;;;;5116359;28;20461;-40
2021/06/28 10:57:42;;;;;;;4.10;3.80;;;38.70;44.20;;;;;;5116512;28;20391;-39
2021/06/28 11:00:09;;;;;;;3.80;3.40;;;38.40;42.90;;;;;;5116891;28;20527;-39
2021/06/28 11:02:42;;;;;;;3.37;3.17;;;38.70;43.10;;;;;;5116774;28;20692;-38
2021/06/28 11:05:09;;;;;;;4.73;3.93;;;38.80;44.00;;;;;;5114561;28;20417;-40
2021/06/28 11:07:47;;;;;;;3.80;3.50;;;38.70;43.00;;;;;;5096536;28;20701;-38
2021/06/28 11:10:35;;;;;;;4.43;4.13;;;37.90;42.00;;;;;;5114003;28;20483;-39
2021/06/28 11:13:38;;;;;;;4.03;3.73;;;37.70;41.90;;;;;;5114750;28;20525;-38
2021/06/28 11:16:30;;;;;;;3.37;3.17;;;37.90;43.50;;;;;;5054831;28;20472;-40
2021/06/28 11:18:55;;;;;;;4.50;3.87;;;38.10;45.40;;;;;;5115217;28;20480;-39
2021/06/28 11:21:40;;;;;;;4.10;3.80;;;38.20;43.00;;;;;;5113142;28;20815;-39
2021/06/28 11:24:09;;;;;;;3.50;3.20;;;37.90;43.70;;;;;;5099106;28;20236;-41
2021/06/28 11:26:38;;;;;;;3.87;3.67;;;37.70;41.70;;;;;;5117601;27;20461;-41
2021/06/28 11:29:04;;;;;;;4.10;3.70;;;37.30;42.00;;;;;;5113044;28;20413;-38
2021/06/28 11:31:31;;;;;;;3.73;3.53;;;36.90;42.10;;;;;;5116311;28;20504;-40
2021/06/28 11:34:00;;;;;;;4.60;4.30;;;36.50;42.40;;;;;;5097781;28;20232;-39
2021/06/28 11:36:35;;;;;;;3.70;3.40;;;36.30;43.60;;;;;;5098643;28;20441;-40
2021/06/28 11:39:25;;;;;;;3.70;3.40;;;36.60;42.70;;;;;;5097394;28;20933;-40
2021/06/28 11:42:30;;;;;;;4.17;3.87;;;36.80;42.20;;;;;;5098123;28;20853;-39
2021/06/28 11:45:06;;;;;;;4.07;3.77;;;36.80;43.80;;;;;;5070946;28;20436;-40
2021/06/28 11:47:44;;;;;;;4.47;4.17;;;36.90;44.80;;;;;;5094602;28;20392;-40
2021/06/28 11:50:25;;;;;;;3.97;3.67;;;37.20;45.00;;;;;;5112479;28;20463;-38
2021/06/28 11:52:58;;;;;;;4.43;4.13;;;37.50;43.80;;;;;;5112757;28;20395;-38
2021/06/28 11:55:24;;;;;;;4.20;3.90;;;37.50;42.60;;;;;;5114456;28;20839;-38
2021/06/28 11:57:52;;;;;;;4.67;4.37;;;37.30;43.60;;;;;;5113453;28;20436;-38
2021/06/28 12:00:18;;;;;;;4.10;3.80;;;37.00;45.30;;;;;;5115648;28;20620;-38
2021/06/28 12:02:44;;;;;;;4.00;3.70;;;37.20;45.30;;;;;;5116444;28;20416;-39
2021/06/28 12:05:10;;;;;;;5.00;4.53;;;37.40;42.00;;;;;;5115760;28;20422;-39
2021/06/28 12:07:36;;;;;;;4.20;3.90;;;37.40;43.90;;;;;;5115633;28;20199;-41
2021/06/28 12:10:03;;;;;;;4.20;3.90;;;37.40;43.40;;;;;;5116268;28;20478;-40
2021/06/28 12:12:29;;;;;;;4.60;4.20;;;37.80;43.20;;;;;;5097350;28;20418;-39
2021/06/28 12:14:54;;;;;;;3.60;3.40;;;38.20;43.70;;;;;;5116364;28;20426;-39
2021/06/28 12:17:30;;;;;;;4.50;4.10;;;38.60;41.40;;;;;;5115912;28;20366;-38
2021/06/28 12:20:07;;;;;;;4.10;3.80;;;38.80;42.70;;;;;;5116304;28;20473;-39
2021/06/28 12:22:37;;;;;;;4.80;4.40;;;39.20;43.00;;;;;;5116484;28;20429;-38
2021/06/28 12:25:12;;;;;;;3.87;3.67;;;39.30;42.20;;;;;;5081750;28;20421;-41
2021/06/28 12:27:40;;;;;;;4.57;4.23;;;39.10;42.00;;;;;;5115659;28;20415;-39
2021/06/28 12:30:09;;;;;;;4.83;4.43;;;38.70;41.00;;;;;;5096738;28;20488;-38
2021/06/28 12:32:38;;;;;;;4.53;4.23;;;38.20;42.10;;;;;;5097496;28;20878;-38
2021/06/28 12:35:10;;;;;;;5.00;4.50;;;38.00;41.90;;;;;;5096289;28;20904;-38
2021/06/28 12:37:56;;;;;;;4.20;3.90;;;37.70;44.10;;;;;;5116013;28;20453;-38
2021/06/28 12:40:28;;;;;;;5.00;4.60;;;37.50;45.40;;;;;;5097746;28;20543;-38
2021/06/28 12:43:13;;;;;;;4.97;4.63;;;37.50;44.60;;;;;;5116086;28;20402;-38
2021/06/28 12:45:42;;;;;;;5.13;4.83;;;37.50;45.00;;;;;;5097652;28;20414;-37
2021/06/28 12:48:14;;;;;;;4.70;4.30;;;37.10;44.80;;;;;;5115943;28;20421;-38
2021/06/28 12:50:40;;;;;;;4.93;4.53;;;37.10;44.50;;;;;;5098248;28;20493;-38
2021/06/28 12:53:15;;;;;;;4.60;4.30;;;36.80;44.80;;;;;;5113560;28;21273;-37
2021/06/28 12:55:42;;;;;;;4.80;4.50;;;36.70;44.90;;;;;;5114562;28;20289;-37